createdAt,value
2022-10-19T00:01:18.665Z,90.58
2022-10-19T00:06:28.158Z,90.54
2022-10-19T00:09:00.554Z,90.65
2022-10-19T00:11:29.560Z,91.10
2022-10-19T00:13:58.332Z,90.80
2022-10-19T00:16:28.907Z,91.15
2022-10-19T00:19:02.569Z,91.01
2022-10-19T00:21:30.446Z,91.04
2022-10-19T00:23:57.464Z,90.94
2022-10-19T00:26:25.394Z,90.95
2022-10-19T00:28:55.460Z,91.18
2022-10-19T04:33:16.063Z,91.41
2022-10-19T04:35:43.013Z,91.21
2022-10-19T04:38:10.053Z,91.31
2022-10-19T04:40:37.689Z,91.35
2022-10-19T04:43:05.479Z,91.33
2022-10-19T04:45:35.739Z,91.34
2022-10-19T04:48:02.745Z,91.12
2022-10-19T04:50:29.729Z,91.37
2022-10-19T04:52:56.705Z,91.22
2022-10-19T05:27:27.673Z,91.78
2022-10-19T05:29:54.639Z,91.30
2022-10-19T05:32:21.656Z,91.55
2022-10-19T05:34:48.588Z,91.25
2022-10-19T05:37:17.108Z,91.38
2022-10-19T05:39:44.291Z,91.16
2022-10-19T05:42:11.370Z,91.33
2022-10-19T05:47:10.512Z,92.62
2022-10-19T05:49:37.491Z,86.67
2022-10-19T05:52:04.764Z,85.55
2022-10-19T05:54:31.816Z,88.39
2022-10-19T05:56:58.923Z,89.43
2022-10-19T05:59:26.020Z,90.17
2022-10-19T06:01:53.047Z,90.80
2022-10-19T06:41:10.562Z,90.85
2022-10-19T06:43:37.623Z,91.03
2022-10-19T06:46:11.253Z,91.33
2022-10-19T06:48:38.787Z,91.35
2022-10-19T06:51:10.076Z,91.47
2022-10-19T06:53:37.740Z,91.37
2022-10-19T06:56:06.644Z,91.22
2022-10-19T06:58:38.093Z,91.47
2022-10-19T07:01:10.276Z,91.59
2022-10-19T07:03:37.971Z,91.31
2022-10-19T07:06:08.565Z,91.37
2022-10-19T07:08:38.229Z,91.58
2022-10-19T07:11:09.702Z,91.41
2022-10-19T07:13:36.774Z,91.33
2022-10-19T07:16:17.554Z,91.49
2022-10-19T07:18:49.372Z,91.74
2022-10-19T07:21:18.188Z,91.40
2022-10-19T07:23:47.420Z,91.42
2022-10-19T07:26:26.575Z,91.83
2022-10-19T07:28:56.565Z,91.84
2022-10-19T07:31:26.185Z,92.11
2022-10-19T07:34:01.788Z,92.27
2022-10-19T07:36:33.191Z,91.61
2022-10-19T07:39:02.589Z,91.53
2022-10-19T07:41:29.594Z,91.74
2022-10-19T07:43:57.886Z,91.59
2022-10-19T07:46:29.255Z,91.55
2022-10-19T07:48:56.356Z,91.71
2022-10-19T07:51:23.472Z,91.53
2022-10-19T07:53:50.897Z,91.75
2022-10-19T07:56:21.188Z,91.64
2022-10-19T07:58:50.416Z,91.85
2022-10-19T08:01:24.779Z,91.28
2022-10-19T08:04:43.267Z,91.58
2022-10-19T08:06:44.701Z,91.25
2022-10-19T08:09:27.715Z,91.18
2022-10-19T08:11:58.793Z,91.26
2022-10-19T08:14:26.261Z,91.26
2022-10-19T08:16:53.289Z,90.65
2022-10-19T08:19:20.258Z,90.73
2022-10-19T08:21:47.718Z,90.68
2022-10-19T08:24:17.809Z,90.46
2022-10-19T08:26:45.199Z,90.35
2022-10-19T08:29:19.585Z,90.39
2022-10-19T08:31:48.805Z,90.46
2022-10-19T08:34:16.114Z,89.93
2022-10-19T08:36:43.892Z,89.77
2022-10-19T08:39:12.786Z,89.67
2022-10-19T08:42:10.722Z,89.76
2022-10-19T08:45:25.702Z,89.74
2022-10-19T08:47:58.435Z,89.42
2022-10-19T08:50:41.654Z,89.69
2022-10-19T08:53:35.627Z,89.15
2022-10-19T08:56:50.510Z,88.88
2022-10-19T08:59:52.062Z,88.70
2022-10-19T09:02:39.406Z,88.71
2022-10-19T09:05:19.815Z,88.85
2022-10-19T09:07:50.294Z,88.30
2022-10-19T09:10:25.506Z,88.00
2022-10-19T09:13:03.122Z,87.78
2022-10-19T09:15:38.557Z,87.62
2022-10-19T09:18:25.420Z,87.34
2022-10-19T09:21:46.340Z,87.18
2022-10-19T09:24:39.159Z,87.00
2022-10-19T09:27:15.314Z,87.17
2022-10-19T09:29:48.297Z,86.91
2022-10-19T09:32:25.814Z,86.77
2022-10-19T09:35:27.521Z,86.73
2022-10-19T09:37:55.841Z,86.49
2022-10-19T09:40:29.739Z,86.30
2022-10-19T09:42:58.237Z,86.03
2022-10-19T09:45:42.122Z,85.51
2022-10-19T09:48:45.613Z,84.86
2022-10-19T09:51:16.448Z,84.91
2022-10-19T09:53:53.147Z,84.86
2022-10-19T09:56:26.576Z,84.53
2022-10-19T09:58:59.573Z,84.62
2022-10-19T10:01:43.010Z,84.42
2022-10-19T10:04:17.151Z,84.06
2022-10-19T10:06:48.231Z,83.79
2022-10-19T10:09:23.730Z,83.88
2022-10-19T10:14:35.218Z,83.83
2022-10-19T10:17:14.450Z,83.19
2022-10-19T10:20:00.226Z,82.86
2022-10-19T10:22:35.597Z,82.26
2022-10-19T10:25:18.079Z,80.95
2022-10-19T10:28:19.020Z,81.06
2022-10-19T10:30:48.545Z,80.96
2022-10-19T10:33:43.761Z,79.81
2022-10-19T10:36:12.582Z,79.24
2022-10-19T10:38:51.081Z,79.62
2022-10-19T10:41:23.494Z,79.87
2022-10-19T10:44:06.687Z,80.07
2022-10-19T10:46:59.385Z,79.44
2022-10-19T10:49:36.682Z,79.11
2022-10-19T10:52:15.964Z,78.09
2022-10-19T10:54:57.827Z,77.60
2022-10-19T10:57:28.415Z,77.14
2022-10-19T11:00:20.079Z,77.24
2022-10-19T11:03:01.242Z,77.51
2022-10-19T11:06:00.679Z,77.04
2022-10-19T11:08:52.472Z,75.85
2022-10-19T11:11:23.089Z,75.81
2022-10-19T11:14:31.029Z,75.35
2022-10-19T11:17:15.331Z,75.11
2022-10-19T11:19:45.539Z,75.68
2022-10-19T11:22:26.383Z,75.25
2022-10-19T11:25:25.069Z,75.99
2022-10-19T11:28:16.039Z,76.11
2022-10-19T11:31:21.236Z,74.33
2022-10-19T11:34:27.009Z,74.26
2022-10-19T11:37:14.933Z,75.04
2022-10-19T11:39:51.153Z,74.15
2022-10-19T11:42:33.511Z,74.14
2022-10-19T11:45:20.256Z,73.48
2022-10-19T11:48:18.681Z,73.88
2022-10-19T11:51:22.282Z,73.34
2022-10-19T11:54:49.588Z,72.98
2022-10-19T11:57:28.033Z,72.36
2022-10-19T12:00:39.348Z,72.05
2022-10-19T12:03:34.222Z,71.77
2022-10-19T12:06:39.307Z,71.81
2022-10-19T12:09:40.204Z,71.93
2022-10-19T12:12:25.125Z,70.64
2022-10-19T12:15:00.936Z,70.71
2022-10-19T12:17:33.149Z,69.94
2022-10-19T12:20:09.461Z,69.80
2022-10-19T12:22:38.466Z,69.76
2022-10-19T12:25:06.973Z,70.00
2022-10-19T12:27:40.479Z,69.21
2022-10-19T12:30:15.040Z,69.23
2022-10-19T12:33:22.288Z,69.13
2022-10-19T12:35:53.692Z,68.73
2022-10-19T12:39:01.552Z,68.73
2022-10-19T12:42:23.783Z,68.47
2022-10-19T12:45:19.764Z,68.23
2022-10-19T12:48:07.808Z,67.89
2022-10-19T12:50:49.822Z,67.85
2022-10-19T12:53:40.918Z,68.48
2022-10-19T12:56:16.430Z,68.26
2022-10-19T12:58:56.630Z,67.85
2022-10-19T13:01:34.767Z,68.06
2022-10-19T13:04:14.472Z,68.32
2022-10-19T13:06:51.793Z,68.73
2022-10-19T13:09:36.702Z,68.23
2022-10-19T13:12:19.457Z,68.56
2022-10-19T13:14:58.989Z,68.51
2022-10-19T13:17:36.129Z,68.75
2022-10-19T13:20:25.342Z,68.02
2022-10-19T13:23:13.168Z,68.31
2022-10-19T13:25:44.092Z,68.23
2022-10-19T13:28:10.986Z,68.66
2022-10-19T13:30:47.079Z,68.16
2022-10-19T13:33:29.105Z,67.82
2022-10-19T13:35:59.043Z,67.59
2022-10-19T13:38:31.512Z,67.45
2022-10-19T13:41:08.897Z,68.15
2022-10-19T13:43:57.349Z,67.82
2022-10-19T13:46:30.076Z,67.67
2022-10-19T13:49:08.605Z,67.65
2022-10-19T13:52:17.890Z,66.58
2022-10-19T13:55:45.098Z,66.07
2022-10-19T13:58:31.534Z,66.03
2022-10-19T14:01:25.949Z,65.21
2022-10-19T14:04:19.194Z,65.98
2022-10-19T14:07:07.539Z,66.29
2022-10-19T14:09:51.342Z,65.51
2022-10-19T14:12:27.655Z,64.84
2022-10-19T14:14:55.036Z,64.76
2022-10-19T14:17:27.352Z,65.35
2022-10-19T14:20:00.060Z,65.52
2022-10-19T14:22:36.147Z,65.41
2022-10-19T14:25:27.611Z,65.10
2022-10-19T14:28:01.989Z,65.16
2022-10-19T14:30:32.831Z,64.83
2022-10-19T14:33:02.644Z,65.46
2022-10-19T14:35:35.681Z,65.67
2022-10-19T14:38:06.848Z,65.16
2022-10-19T14:40:40.168Z,65.48
2022-10-19T14:43:29.409Z,65.26
2022-10-19T14:46:08.674Z,65.35
2022-10-19T14:48:47.459Z,65.20
2022-10-19T14:51:36.464Z,65.50
2022-10-19T14:54:38.935Z,65.59
2022-10-19T14:57:29.103Z,65.36
2022-10-19T15:00:01.895Z,66.19
2022-10-19T15:02:46.381Z,66.44
2022-10-19T15:05:23.714Z,67.22
2022-10-19T15:07:51.271Z,67.57
2022-10-19T15:10:29.377Z,67.23
2022-10-19T15:13:06.560Z,67.63
2022-10-19T15:15:35.901Z,68.11
2022-10-19T15:18:04.409Z,67.85
2022-10-19T15:20:49.486Z,68.57
2022-10-19T15:23:41.452Z,68.62
2022-10-19T15:26:27.350Z,69.10
2022-10-19T15:29:07.467Z,69.19
2022-10-19T15:31:34.679Z,69.18
2022-10-19T15:34:03.754Z,69.60
2022-10-19T15:36:33.089Z,69.66
2022-10-19T15:39:24.487Z,69.62
2022-10-19T15:41:52.578Z,70.20
2022-10-19T15:44:42.585Z,70.13
2022-10-19T15:47:15.444Z,70.05
2022-10-19T15:49:42.345Z,69.83
2022-10-19T15:52:31.852Z,70.70
2022-10-19T15:55:00.551Z,70.77
2022-10-19T15:57:39.299Z,70.38
2022-10-19T16:00:14.881Z,70.84
2022-10-19T16:02:42.162Z,70.74
2022-10-19T16:05:09.619Z,70.79
2022-10-19T16:07:39.278Z,71.13
2022-10-19T16:10:08.612Z,70.94
2022-10-19T16:12:35.597Z,71.25
2022-10-19T16:15:04.099Z,71.19
2022-10-19T16:17:31.187Z,71.20
2022-10-19T16:19:58.335Z,71.14
2022-10-19T16:22:25.380Z,71.85
2022-10-19T16:24:52.421Z,72.21
2022-10-19T16:27:19.464Z,72.25
2022-10-19T16:29:46.539Z,72.16
2022-10-19T16:32:13.527Z,72.65
2022-10-19T16:34:41.375Z,72.91
2022-10-19T16:37:08.357Z,72.80
2022-10-19T16:39:35.434Z,72.83
2022-10-19T16:42:02.451Z,73.14
2022-10-19T16:44:29.592Z,73.57
2022-10-19T16:46:57.926Z,73.38
2022-10-19T16:49:26.143Z,73.48
2022-10-19T16:51:56.404Z,73.42
2022-10-19T16:54:26.754Z,73.93
2022-10-19T16:56:55.696Z,73.63
2022-10-19T16:59:22.863Z,73.89
2022-10-19T17:01:50.448Z,74.14
2022-10-19T17:04:21.326Z,74.09
2022-10-19T17:06:48.413Z,74.32
2022-10-19T17:09:41.303Z,74.45
2022-10-19T17:12:02.411Z,74.54
2022-10-19T17:14:29.402Z,74.51
2022-10-19T17:16:56.462Z,74.79
2022-10-19T17:19:24.979Z,74.49
2022-10-19T17:21:54.806Z,74.60
2022-10-19T17:24:22.789Z,74.77
2022-10-19T17:26:52.234Z,74.62
2022-10-19T17:29:21.139Z,74.65
2022-10-19T17:31:49.652Z,74.61
2022-10-19T17:34:17.684Z,75.10
2022-10-19T17:36:46.243Z,75.03
2022-10-19T17:39:24.433Z,75.18
2022-10-19T17:41:54.542Z,75.24
2022-10-19T17:44:22.588Z,75.32
2022-10-19T17:46:50.185Z,75.42
2022-10-19T17:49:18.819Z,75.24
2022-10-19T17:51:45.870Z,75.80
2022-10-19T17:54:14.609Z,75.86
2022-10-19T17:56:45.194Z,75.96
2022-10-19T17:59:13.149Z,76.20
2022-10-19T18:01:40.629Z,75.93
2022-10-19T18:04:07.783Z,75.86
2022-10-19T18:06:37.769Z,76.17
2022-10-19T18:09:08.197Z,76.39
2022-10-19T18:11:42.119Z,76.14
2022-10-19T18:14:10.887Z,76.19
2022-10-19T18:16:45.436Z,76.65
2022-10-19T18:19:14.984Z,76.83
2022-10-19T18:21:46.412Z,76.64
2022-10-19T18:24:20.141Z,76.75
2022-10-19T18:27:01.052Z,76.98
2022-10-19T18:29:28.462Z,77.04
2022-10-19T18:31:56.944Z,76.86
2022-10-19T18:34:26.460Z,77.01
2022-10-19T18:36:54.431Z,76.99
2022-10-19T18:39:22.559Z,77.06
2022-10-19T18:41:56.821Z,77.15
2022-10-19T18:44:26.544Z,76.63
2022-10-19T18:46:56.943Z,77.26
2022-10-19T18:49:26.025Z,77.04
2022-10-19T18:51:55.473Z,77.39
2022-10-19T18:54:26.366Z,77.59
2022-10-19T18:56:54.581Z,77.33
2022-10-19T18:59:22.092Z,77.29
2022-10-19T19:01:49.423Z,77.36
2022-10-19T19:04:16.871Z,77.40
2022-10-19T19:06:44.162Z,77.54
2022-10-19T19:09:12.901Z,77.80
2022-10-19T19:11:41.280Z,77.55
2022-10-19T19:14:16.824Z,77.74
2022-10-19T19:16:45.980Z,78.12
2022-10-19T19:19:16.850Z,77.91
2022-10-19T19:21:45.980Z,78.25
2022-10-19T19:24:18.760Z,78.27
2022-10-19T19:26:50.696Z,78.37
2022-10-19T19:29:19.617Z,78.25
2022-10-19T19:31:48.268Z,78.49
2022-10-19T19:34:16.039Z,78.48
2022-10-19T19:36:48.125Z,78.78
2022-10-19T19:39:20.335Z,78.88
2022-10-19T19:41:49.486Z,78.65
2022-10-19T19:44:19.851Z,78.86
2022-10-19T19:46:47.277Z,79.18
2022-10-19T19:49:14.938Z,79.24
2022-10-19T19:51:42.546Z,79.17
2022-10-19T19:54:09.713Z,79.43
2022-10-19T19:56:37.505Z,79.20
2022-10-19T19:59:04.798Z,79.33
2022-10-19T20:01:32.491Z,79.53
2022-10-19T20:06:37.427Z,79.72
2022-10-19T20:09:06.639Z,79.71
2022-10-19T20:11:37.144Z,79.91
2022-10-19T20:14:06.933Z,80.12
2022-10-19T20:16:34.333Z,79.91
2022-10-19T20:19:13.869Z,80.31
2022-10-19T20:21:41.411Z,80.15
2022-10-19T20:24:08.744Z,80.43
2022-10-19T20:26:36.539Z,80.21
2022-10-19T20:29:05.039Z,80.67
2022-10-19T20:31:33.588Z,80.31
2022-10-19T20:34:03.086Z,80.87
2022-10-19T20:36:30.019Z,81.02
2022-10-19T20:38:58.855Z,81.09
2022-10-19T20:41:28.507Z,80.82
2022-10-19T20:43:56.894Z,81.02
2022-10-19T20:46:27.546Z,81.45
2022-10-19T20:48:57.942Z,81.62
2022-10-19T20:51:31.599Z,81.57
2022-10-19T20:54:01.947Z,81.45
2022-10-19T20:56:32.912Z,81.92
2022-10-19T20:59:30.355Z,81.67
2022-10-19T21:01:57.950Z,81.80
2022-10-19T21:04:28.407Z,81.73
2022-10-19T21:06:55.440Z,81.80
2022-10-19T21:09:23.689Z,82.16
2022-10-19T21:11:52.202Z,82.26
2022-10-19T21:14:28.697Z,82.24
2022-10-19T21:17:00.162Z,82.18
2022-10-19T21:19:29.828Z,82.61
2022-10-19T21:22:02.151Z,82.65
2022-10-19T21:24:33.639Z,82.99
2022-10-19T21:27:04.794Z,83.17
2022-10-19T21:29:32.049Z,82.82
2022-10-19T21:31:59.222Z,83.28
2022-10-19T21:34:29.315Z,83.06
2022-10-19T21:36:56.904Z,83.21
2022-10-19T21:39:23.982Z,83.52
2022-10-19T21:41:51.016Z,83.60
2022-10-19T21:44:19.204Z,83.80
2022-10-19T21:46:48.418Z,83.51
2022-10-19T21:49:15.847Z,83.86
2022-10-19T21:51:45.205Z,83.87
2022-10-19T21:54:21.627Z,84.19
2022-10-19T21:56:48.938Z,84.26
2022-10-19T21:59:16.354Z,84.81
2022-10-19T22:01:43.781Z,84.79
2022-10-19T22:04:16.975Z,84.88
2022-10-19T22:06:44.684Z,84.98
2022-10-19T22:09:18.119Z,84.97
2022-10-19T22:11:46.064Z,85.29
2022-10-19T22:14:15.167Z,85.29
2022-10-19T22:16:42.833Z,85.52
2022-10-19T22:19:10.847Z,85.60
2022-10-19T22:24:14.151Z,85.85
2022-10-19T22:26:45.221Z,85.61
2022-10-19T22:29:12.412Z,85.60
2022-10-19T22:31:39.601Z,86.11
2022-10-19T22:34:11.713Z,85.99
2022-10-19T22:36:39.027Z,86.03
2022-10-19T22:39:06.505Z,86.26
2022-10-19T22:41:33.593Z,85.97
2022-10-19T22:44:00.771Z,86.37
2022-10-19T22:46:27.715Z,86.28
2022-10-19T22:48:54.771Z,86.27
2022-10-19T22:51:21.918Z,86.40
2022-10-19T22:53:49.039Z,86.66
2022-10-19T22:56:16.071Z,86.74
2022-10-19T22:58:43.038Z,86.97
2022-10-19T23:01:13.389Z,87.18
2022-10-19T23:03:41.207Z,87.03
2022-10-19T23:06:11.036Z,87.00
2022-10-19T23:08:38.268Z,87.17
2022-10-19T23:11:05.534Z,87.55
2022-10-19T23:13:32.494Z,87.18
2022-10-19T23:15:59.534Z,87.59
2022-10-19T23:18:26.544Z,87.29
2022-10-19T23:20:59.347Z,87.51
2022-10-19T23:23:27.107Z,87.49
2022-10-19T23:26:19.570Z,87.72
2022-10-19T23:28:49.463Z,87.90
2022-10-19T23:31:20.435Z,87.75
2022-10-19T23:33:47.547Z,88.15
2022-10-19T23:36:18.527Z,88.00
2022-10-19T23:38:46.857Z,88.04
2022-10-19T23:41:14.717Z,88.29
2022-10-19T23:43:42.372Z,88.12
2022-10-19T23:46:09.419Z,88.31
2022-10-19T23:48:37.172Z,88.38
2022-10-19T23:51:10.750Z,88.38
2022-10-19T23:53:41.352Z,88.64
2022-10-19T23:56:18.762Z,88.67
2022-10-19T23:58:46.790Z,88.48
